sensor_id;sensor_type;location;lat;lon;timestamp;P1;durP1;ratioP1;P2;durP2;ratioP2
42586;SDS011;28216;53.362;-6.288;2022-10-31T00:01:33;7.82;;;2.20;;
42586;SDS011;28216;53.362;-6.288;2022-10-31T00:04:01;11.20;;;2.45;;
42586;SDS011;28216;53.362;-6.288;2022-10-31T00:06:27;13.25;;;2.92;;
42586;SDS011;28216;53.362;-6.288;2022-10-31T00:08:57;13.70;;;2.50;;
42586;SDS011;28216;53.362;-6.288;2022-10-31T00:11:25;9.20;;;2.83;;
42586;SDS011;28216;53.362;-6.288;2022-10-31T00:13:50;9.57;;;2.90;;
42586;SDS011;28216;53.362;-6.288;2022-10-31T00:16:22;7.05;;;2.10;;
42586;SDS011;28216;53.362;-6.288;2022-10-31T00:18:49;9.07;;;2.25;;
42586;SDS011;28216;53.362;-6.288;2022-10-31T00:21:15;8.10;;;2.33;;
42586;SDS011;28216;53.362;-6.288;2022-10-31T00:23:41;8.75;;;2.38;;
42586;SDS011;28216;53.362;-6.288;2022-10-31T00:26:06;11.55;;;2.20;;
42586;SDS011;28216;53.362;-6.288;2022-10-31T00:28:32;9.57;;;2.60;;
42586;SDS011;28216;53.362;-6.288;2022-10-31T00:31:01;12.55;;;2.72;;
42586;SDS011;28216;53.362;-6.288;2022-10-31T00:33:28;12.15;;;2.95;;
42586;SDS011;28216;53.362;-6.288;2022-10-31T00:35:53;9.70;;;2.45;;
42586;SDS011;28216;53.362;-6.288;2022-10-31T00:38:19;9.77;;;2.30;;
42586;SDS011;28216;53.362;-6.288;2022-10-31T00:40:45;12.65;;;2.53;;
42586;SDS011;28216;53.362;-6.288;2022-10-31T00:43:10;11.48;;;2.70;;
42586;SDS011;28216;53.362;-6.288;2022-10-31T00:45:36;14.95;;;3.72;;
42586;SDS011;28216;53.362;-6.288;2022-10-31T00:48:01;13.27;;;2.90;;
42586;SDS011;28216;53.362;-6.288;2022-10-31T00:50:27;10.48;;;2.38;;
42586;SDS011;28216;53.362;-6.288;2022-10-31T00:52:52;9.23;;;2.38;;
42586;SDS011;28216;53.362;-6.288;2022-10-31T00:55:17;15.23;;;2.72;;
42586;SDS011;28216;53.362;-6.288;2022-10-31T00:57:45;8.60;;;1.67;;
42586;SDS011;28216;53.362;-6.288;2022-10-31T01:00:12;5.80;;;1.70;;
42586;SDS011;28216;53.362;-6.288;2022-10-31T01:02:38;9.40;;;2.28;;
42586;SDS011;28216;53.362;-6.288;2022-10-31T01:05:04;9.73;;;2.50;;
42586;SDS011;28216;53.362;-6.288;2022-10-31T01:07:30;13.02;;;2.70;;
42586;SDS011;28216;53.362;-6.288;2022-10-31T01:09:55;11.77;;;2.00;;
42586;SDS011;28216;53.362;-6.288;2022-10-31T01:12:20;9.68;;;2.10;;
42586;SDS011;28216;53.362;-6.288;2022-10-31T01:14:46;13.85;;;1.95;;
42586;SDS011;28216;53.362;-6.288;2022-10-31T01:17:12;13.82;;;2.20;;
42586;SDS011;28216;53.362;-6.288;2022-10-31T01:19:38;11.75;;;2.00;;
42586;SDS011;28216;53.362;-6.288;2022-10-31T01:22:04;9.73;;;2.17;;
42586;SDS011;28216;53.362;-6.288;2022-10-31T01:24:29;12.73;;;2.17;;
42586;SDS011;28216;53.362;-6.288;2022-10-31T01:26:55;15.25;;;2.30;;
42586;SDS011;28216;53.362;-6.288;2022-10-31T01:29:20;14.95;;;2.47;;
42586;SDS011;28216;53.362;-6.288;2022-10-31T01:31:46;11.57;;;1.90;;
42586;SDS011;28216;53.362;-6.288;2022-10-31T01:34:15;9.35;;;2.17;;
42586;SDS011;28216;53.362;-6.288;2022-10-31T01:36:42;11.60;;;2.28;;
42586;SDS011;28216;53.362;-6.288;2022-10-31T01:39:12;8.38;;;2.42;;
42586;SDS011;28216;53.362;-6.288;2022-10-31T01:41:40;7.95;;;1.85;;
42586;SDS011;28216;53.362;-6.288;2022-10-31T01:49:41;7.22;;;1.60;;
42586;SDS011;28216;53.362;-6.288;2022-10-31T01:52:11;6.13;;;1.50;;
42586;SDS011;28216;53.362;-6.288;2022-10-31T01:54:45;10.50;;;1.75;;
42586;SDS011;28216;53.362;-6.288;2022-10-31T01:57:17;10.68;;;1.80;;
42586;SDS011;28216;53.362;-6.288;2022-10-31T01:59:47;4.72;;;1.52;;
42586;SDS011;28216;53.362;-6.288;2022-10-31T02:02:15;6.97;;;1.70;;
42586;SDS011;28216;53.362;-6.288;2022-10-31T02:04:41;10.15;;;2.03;;
42586;SDS011;28216;53.362;-6.288;2022-10-31T02:07:12;10.77;;;2.38;;
42586;SDS011;28216;53.362;-6.288;2022-10-31T02:09:41;8.57;;;2.25;;
42586;SDS011;28216;53.362;-6.288;2022-10-31T02:12:09;12.43;;;2.20;;
42586;SDS011;28216;53.362;-6.288;2022-10-31T02:14:35;14.35;;;2.40;;
42586;SDS011;28216;53.362;-6.288;2022-10-31T02:17:02;9.07;;;2.00;;
42586;SDS011;28216;53.362;-6.288;2022-10-31T02:46:04;13.70;;;2.42;;
42586;SDS011;28216;53.362;-6.288;2022-10-31T02:48:44;11.60;;;2.25;;
42586;SDS011;28216;53.362;-6.288;2022-10-31T02:51:11;12.07;;;2.13;;
42586;SDS011;28216;53.362;-6.288;2022-10-31T02:53:37;11.90;;;2.00;;
42586;SDS011;28216;53.362;-6.288;2022-10-31T02:56:16;10.93;;;2.15;;
42586;SDS011;28216;53.362;-6.288;2022-10-31T02:58:48;9.95;;;2.00;;
42586;SDS011;28216;53.362;-6.288;2022-10-31T03:06:29;12.05;;;2.10;;
42586;SDS011;28216;53.362;-6.288;2022-10-31T03:14:24;8.02;;;1.90;;
42586;SDS011;28216;53.362;-6.288;2022-10-31T03:16:59;14.52;;;2.20;;
42586;SDS011;28216;53.362;-6.288;2022-10-31T03:19:33;9.50;;;2.10;;
42586;SDS011;28216;53.362;-6.288;2022-10-31T03:22:12;9.93;;;1.70;;
42586;SDS011;28216;53.362;-6.288;2022-10-31T03:24:42;13.98;;;2.15;;
42586;SDS011;28216;53.362;-6.288;2022-10-31T03:27:09;11.27;;;1.88;;
42586;SDS011;28216;53.362;-6.288;2022-10-31T03:29:38;11.95;;;2.13;;
42586;SDS011;28216;53.362;-6.288;2022-10-31T03:34:36;12.63;;;2.10;;
42586;SDS011;28216;53.362;-6.288;2022-10-31T03:37:06;11.60;;;2.10;;
42586;SDS011;28216;53.362;-6.288;2022-10-31T03:39:35;14.88;;;1.98;;
42586;SDS011;28216;53.362;-6.288;2022-10-31T03:44:53;12.00;;;2.15;;
42586;SDS011;28216;53.362;-6.288;2022-10-31T03:47:24;12.82;;;2.03;;
42586;SDS011;28216;53.362;-6.288;2022-10-31T03:49:50;8.45;;;1.90;;
42586;SDS011;28216;53.362;-6.288;2022-10-31T03:57:31;9.75;;;1.95;;
42586;SDS011;28216;53.362;-6.288;2022-10-31T04:00:13;9.73;;;1.98;;
42586;SDS011;28216;53.362;-6.288;2022-10-31T04:03:22;9.10;;;2.23;;
42586;SDS011;28216;53.362;-6.288;2022-10-31T04:05:31;10.82;;;2.00;;
42586;SDS011;28216;53.362;-6.288;2022-10-31T04:07:57;11.40;;;2.15;;
42586;SDS011;28216;53.362;-6.288;2022-10-31T04:10:25;13.15;;;2.30;;
42586;SDS011;28216;53.362;-6.288;2022-10-31T04:12:57;8.35;;;2.22;;
42586;SDS011;28216;53.362;-6.288;2022-10-31T04:15:26;9.25;;;1.60;;
42586;SDS011;28216;53.362;-6.288;2022-10-31T04:17:53;11.48;;;2.40;;
42586;SDS011;28216;53.362;-6.288;2022-10-31T04:20:58;9.00;;;1.83;;
42586;SDS011;28216;53.362;-6.288;2022-10-31T04:23:24;9.02;;;1.85;;
42586;SDS011;28216;53.362;-6.288;2022-10-31T04:25:51;10.05;;;2.08;;
42586;SDS011;28216;53.362;-6.288;2022-10-31T04:28:17;10.40;;;2.00;;
42586;SDS011;28216;53.362;-6.288;2022-10-31T04:30:43;10.43;;;1.67;;
42586;SDS011;28216;53.362;-6.288;2022-10-31T04:33:08;7.70;;;1.70;;
42586;SDS011;28216;53.362;-6.288;2022-10-31T04:35:33;6.45;;;1.48;;
42586;SDS011;28216;53.362;-6.288;2022-10-31T04:37:59;7.30;;;1.50;;
42586;SDS011;28216;53.362;-6.288;2022-10-31T04:40:24;8.43;;;1.45;;
42586;SDS011;28216;53.362;-6.288;2022-10-31T04:42:50;7.93;;;1.60;;
42586;SDS011;28216;53.362;-6.288;2022-10-31T04:45:15;9.52;;;1.70;;
42586;SDS011;28216;53.362;-6.288;2022-10-31T04:47:41;9.98;;;1.70;;
42586;SDS011;28216;53.362;-6.288;2022-10-31T04:50:06;12.48;;;1.98;;
42586;SDS011;28216;53.362;-6.288;2022-10-31T04:52:32;11.50;;;1.83;;
42586;SDS011;28216;53.362;-6.288;2022-10-31T04:54:57;7.47;;;1.95;;
42586;SDS011;28216;53.362;-6.288;2022-10-31T04:57:23;8.27;;;1.98;;
42586;SDS011;28216;53.362;-6.288;2022-10-31T04:59:48;12.95;;;1.98;;
42586;SDS011;28216;53.362;-6.288;2022-10-31T05:02:14;6.60;;;1.67;;
42586;SDS011;28216;53.362;-6.288;2022-10-31T05:04:39;8.40;;;2.00;;
42586;SDS011;28216;53.362;-6.288;2022-10-31T05:07:04;9.02;;;2.20;;
42586;SDS011;28216;53.362;-6.288;2022-10-31T05:09:30;9.48;;;1.85;;
42586;SDS011;28216;53.362;-6.288;2022-10-31T05:11:55;8.57;;;1.80;;
42586;SDS011;28216;53.362;-6.288;2022-10-31T05:14:21;9.65;;;2.13;;
42586;SDS011;28216;53.362;-6.288;2022-10-31T05:16:46;12.35;;;2.10;;
42586;SDS011;28216;53.362;-6.288;2022-10-31T05:19:12;11.55;;;2.10;;
42586;SDS011;28216;53.362;-6.288;2022-10-31T05:21:37;10.77;;;1.90;;
42586;SDS011;28216;53.362;-6.288;2022-10-31T05:24:02;12.43;;;2.20;;
42586;SDS011;28216;53.362;-6.288;2022-10-31T05:26:28;9.65;;;1.80;;
42586;SDS011;28216;53.362;-6.288;2022-10-31T05:28:54;10.82;;;1.95;;
42586;SDS011;28216;53.362;-6.288;2022-10-31T05:31:19;12.50;;;2.25;;
42586;SDS011;28216;53.362;-6.288;2022-10-31T05:33:44;12.98;;;2.85;;
42586;SDS011;28216;53.362;-6.288;2022-10-31T05:36:10;12.85;;;2.28;;
42586;SDS011;28216;53.362;-6.288;2022-10-31T05:38:35;8.45;;;1.83;;
42586;SDS011;28216;53.362;-6.288;2022-10-31T05:41:01;9.43;;;2.22;;
42586;SDS011;28216;53.362;-6.288;2022-10-31T05:43:26;11.65;;;2.15;;
42586;SDS011;28216;53.362;-6.288;2022-10-31T05:45:52;11.45;;;1.90;;
42586;SDS011;28216;53.362;-6.288;2022-10-31T05:48:18;8.93;;;2.17;;
42586;SDS011;28216;53.362;-6.288;2022-10-31T05:50:44;10.75;;;2.05;;
42586;SDS011;28216;53.362;-6.288;2022-10-31T05:53:09;12.60;;;2.25;;
42586;SDS011;28216;53.362;-6.288;2022-10-31T05:55:35;9.15;;;1.90;;
42586;SDS011;28216;53.362;-6.288;2022-10-31T05:58:00;9.43;;;2.03;;
42586;SDS011;28216;53.362;-6.288;2022-10-31T06:00:26;8.15;;;1.67;;
42586;SDS011;28216;53.362;-6.288;2022-10-31T06:02:59;6.57;;;1.38;;
42586;SDS011;28216;53.362;-6.288;2022-10-31T06:05:25;6.63;;;1.70;;
42586;SDS011;28216;53.362;-6.288;2022-10-31T06:07:51;13.63;;;2.00;;
42586;SDS011;28216;53.362;-6.288;2022-10-31T06:10:16;9.35;;;1.88;;
42586;SDS011;28216;53.362;-6.288;2022-10-31T06:12:42;4.88;;;1.30;;
42586;SDS011;28216;53.362;-6.288;2022-10-31T06:15:07;8.98;;;1.85;;
42586;SDS011;28216;53.362;-6.288;2022-10-31T06:17:34;10.00;;;1.98;;
42586;SDS011;28216;53.362;-6.288;2022-10-31T06:20:00;9.85;;;2.10;;
42586;SDS011;28216;53.362;-6.288;2022-10-31T06:22:26;8.27;;;1.70;;
42586;SDS011;28216;53.362;-6.288;2022-10-31T06:24:52;7.30;;;1.70;;
42586;SDS011;28216;53.362;-6.288;2022-10-31T06:27:17;9.57;;;2.55;;
42586;SDS011;28216;53.362;-6.288;2022-10-31T06:29:43;6.45;;;1.83;;
42586;SDS011;28216;53.362;-6.288;2022-10-31T06:32:10;12.20;;;2.03;;
42586;SDS011;28216;53.362;-6.288;2022-10-31T06:34:37;8.48;;;1.80;;
42586;SDS011;28216;53.362;-6.288;2022-10-31T06:37:02;7.60;;;2.25;;
42586;SDS011;28216;53.362;-6.288;2022-10-31T06:39:28;8.98;;;2.15;;
42586;SDS011;28216;53.362;-6.288;2022-10-31T06:41:53;12.20;;;2.00;;
42586;SDS011;28216;53.362;-6.288;2022-10-31T06:44:19;9.68;;;1.70;;
42586;SDS011;28216;53.362;-6.288;2022-10-31T06:46:46;13.18;;;2.47;;
42586;SDS011;28216;53.362;-6.288;2022-10-31T06:49:12;11.48;;;1.73;;
42586;SDS011;28216;53.362;-6.288;2022-10-31T06:51:38;14.40;;;2.13;;
42586;SDS011;28216;53.362;-6.288;2022-10-31T06:54:03;12.77;;;2.60;;
42586;SDS011;28216;53.362;-6.288;2022-10-31T06:56:29;11.02;;;2.08;;
42586;SDS011;28216;53.362;-6.288;2022-10-31T06:58:54;10.18;;;2.20;;
42586;SDS011;28216;53.362;-6.288;2022-10-31T07:01:20;12.07;;;2.53;;
42586;SDS011;28216;53.362;-6.288;2022-10-31T07:03:46;7.95;;;2.00;;
42586;SDS011;28216;53.362;-6.288;2022-10-31T07:06:11;7.60;;;2.30;;
42586;SDS011;28216;53.362;-6.288;2022-10-31T07:08:37;9.73;;;1.90;;
42586;SDS011;28216;53.362;-6.288;2022-10-31T07:11:03;10.57;;;2.03;;
42586;SDS011;28216;53.362;-6.288;2022-10-31T07:13:28;9.93;;;2.20;;
42586;SDS011;28216;53.362;-6.288;2022-10-31T07:15:54;8.77;;;1.85;;
42586;SDS011;28216;53.362;-6.288;2022-10-31T07:18:24;9.13;;;1.83;;
42586;SDS011;28216;53.362;-6.288;2022-10-31T07:20:51;9.45;;;1.88;;
42586;SDS011;28216;53.362;-6.288;2022-10-31T07:23:16;8.98;;;1.92;;
42586;SDS011;28216;53.362;-6.288;2022-10-31T07:25:42;6.68;;;2.05;;
42586;SDS011;28216;53.362;-6.288;2022-10-31T07:28:10;7.55;;;1.92;;
42586;SDS011;28216;53.362;-6.288;2022-10-31T07:30:36;8.30;;;2.00;;
42586;SDS011;28216;53.362;-6.288;2022-10-31T07:33:03;10.57;;;1.80;;
42586;SDS011;28216;53.362;-6.288;2022-10-31T07:35:29;12.40;;;2.10;;
42586;SDS011;28216;53.362;-6.288;2022-10-31T07:37:57;12.10;;;2.10;;
42586;SDS011;28216;53.362;-6.288;2022-10-31T07:40:31;12.48;;;2.40;;
42586;SDS011;28216;53.362;-6.288;2022-10-31T07:42:57;11.63;;;2.50;;
42586;SDS011;28216;53.362;-6.288;2022-10-31T07:45:23;8.88;;;2.20;;
42586;SDS011;28216;53.362;-6.288;2022-10-31T07:47:49;12.73;;;2.35;;
42586;SDS011;28216;53.362;-6.288;2022-10-31T07:50:19;11.85;;;2.08;;
42586;SDS011;28216;53.362;-6.288;2022-10-31T07:52:46;12.35;;;2.10;;
42586;SDS011;28216;53.362;-6.288;2022-10-31T07:55:12;10.60;;;2.03;;
42586;SDS011;28216;53.362;-6.288;2022-10-31T07:57:39;8.80;;;2.20;;
42586;SDS011;28216;53.362;-6.288;2022-10-31T08:00:08;8.40;;;1.83;;
42586;SDS011;28216;53.362;-6.288;2022-10-31T08:02:37;8.80;;;1.85;;
42586;SDS011;28216;53.362;-6.288;2022-10-31T08:05:02;10.65;;;2.35;;
42586;SDS011;28216;53.362;-6.288;2022-10-31T08:07:28;8.95;;;2.60;;
42586;SDS011;28216;53.362;-6.288;2022-10-31T08:09:54;12.02;;;2.28;;
42586;SDS011;28216;53.362;-6.288;2022-10-31T08:12:21;10.57;;;1.98;;
42586;SDS011;28216;53.362;-6.288;2022-10-31T08:14:46;14.85;;;2.83;;
42586;SDS011;28216;53.362;-6.288;2022-10-31T08:17:12;8.93;;;2.20;;
42586;SDS011;28216;53.362;-6.288;2022-10-31T08:19:38;9.98;;;2.10;;
42586;SDS011;28216;53.362;-6.288;2022-10-31T08:22:03;10.13;;;2.30;;
42586;SDS011;28216;53.362;-6.288;2022-10-31T08:24:29;13.25;;;2.30;;
42586;SDS011;28216;53.362;-6.288;2022-10-31T08:26:54;10.32;;;2.65;;
42586;SDS011;28216;53.362;-6.288;2022-10-31T08:29:20;12.15;;;2.13;;
42586;SDS011;28216;53.362;-6.288;2022-10-31T08:31:45;13.65;;;2.53;;
42586;SDS011;28216;53.362;-6.288;2022-10-31T08:34:11;13.05;;;2.67;;
42586;SDS011;28216;53.362;-6.288;2022-10-31T08:36:36;12.68;;;2.30;;
42586;SDS011;28216;53.362;-6.288;2022-10-31T08:39:02;12.88;;;2.28;;
42586;SDS011;28216;53.362;-6.288;2022-10-31T08:41:28;13.68;;;2.33;;
42586;SDS011;28216;53.362;-6.288;2022-10-31T08:43:53;11.48;;;2.38;;
42586;SDS011;28216;53.362;-6.288;2022-10-31T08:46:19;16.02;;;3.28;;
42586;SDS011;28216;53.362;-6.288;2022-10-31T08:48:47;19.98;;;2.85;;
42586;SDS011;28216;53.362;-6.288;2022-10-31T08:51:12;14.07;;;2.42;;
42586;SDS011;28216;53.362;-6.288;2022-10-31T08:53:38;12.73;;;2.42;;
42586;SDS011;28216;53.362;-6.288;2022-10-31T08:56:03;13.27;;;2.53;;
42586;SDS011;28216;53.362;-6.288;2022-10-31T08:58:29;10.63;;;2.42;;
42586;SDS011;28216;53.362;-6.288;2022-10-31T09:01:00;16.15;;;2.67;;
42586;SDS011;28216;53.362;-6.288;2022-10-31T09:03:28;9.93;;;2.30;;
42586;SDS011;28216;53.362;-6.288;2022-10-31T09:05:55;17.33;;;3.40;;
42586;SDS011;28216;53.362;-6.288;2022-10-31T09:08:22;11.55;;;2.28;;
42586;SDS011;28216;53.362;-6.288;2022-10-31T09:10:48;12.18;;;2.35;;
42586;SDS011;28216;53.362;-6.288;2022-10-31T09:13:17;15.05;;;2.55;;
42586;SDS011;28216;53.362;-6.288;2022-10-31T09:15:46;9.95;;;2.33;;
42586;SDS011;28216;53.362;-6.288;2022-10-31T09:18:13;12.93;;;2.38;;
42586;SDS011;28216;53.362;-6.288;2022-10-31T09:20:40;10.55;;;2.10;;
42586;SDS011;28216;53.362;-6.288;2022-10-31T09:23:11;9.82;;;2.20;;
42586;SDS011;28216;53.362;-6.288;2022-10-31T09:25:38;11.60;;;2.08;;
42586;SDS011;28216;53.362;-6.288;2022-10-31T09:28:05;9.63;;;2.08;;
42586;SDS011;28216;53.362;-6.288;2022-10-31T09:30:32;8.82;;;2.45;;
42586;SDS011;28216;53.362;-6.288;2022-10-31T09:33:20;11.25;;;2.05;;
42586;SDS011;28216;53.362;-6.288;2022-10-31T09:35:45;7.70;;;2.33;;
42586;SDS011;28216;53.362;-6.288;2022-10-31T09:38:14;10.15;;;2.45;;
42586;SDS011;28216;53.362;-6.288;2022-10-31T09:41:18;8.30;;;2.33;;
42586;SDS011;28216;53.362;-6.288;2022-10-31T09:43:55;12.52;;;2.13;;
42586;SDS011;28216;53.362;-6.288;2022-10-31T09:46:33;13.90;;;2.65;;
42586;SDS011;28216;53.362;-6.288;2022-10-31T09:51:43;9.15;;;2.15;;
42586;SDS011;28216;53.362;-6.288;2022-10-31T09:54:13;10.93;;;2.20;;
42586;SDS011;28216;53.362;-6.288;2022-10-31T09:56:43;11.15;;;2.20;;
42586;SDS011;28216;53.362;-6.288;2022-10-31T09:59:15;9.63;;;2.05;;
42586;SDS011;28216;53.362;-6.288;2022-10-31T10:02:02;9.55;;;2.10;;
42586;SDS011;28216;53.362;-6.288;2022-10-31T10:04:40;10.73;;;2.13;;
42586;SDS011;28216;53.362;-6.288;2022-10-31T10:07:24;10.10;;;2.90;;
42586;SDS011;28216;53.362;-6.288;2022-10-31T10:10:08;13.23;;;2.47;;
42586;SDS011;28216;53.362;-6.288;2022-10-31T10:23:46;10.90;;;3.03;;
42586;SDS011;28216;53.362;-6.288;2022-10-31T10:26:21;8.20;;;2.50;;
42586;SDS011;28216;53.362;-6.288;2022-10-31T10:28:54;10.80;;;2.33;;
42586;SDS011;28216;53.362;-6.288;2022-10-31T10:31:35;11.18;;;3.00;;
42586;SDS011;28216;53.362;-6.288;2022-10-31T10:36:41;9.63;;;2.85;;
42586;SDS011;28216;53.362;-6.288;2022-10-31T10:39:22;11.45;;;2.28;;
42586;SDS011;28216;53.362;-6.288;2022-10-31T10:41:51;12.07;;;2.10;;
42586;SDS011;28216;53.362;-6.288;2022-10-31T10:44:37;14.18;;;2.58;;
42586;SDS011;28216;53.362;-6.288;2022-10-31T10:47:23;10.88;;;2.30;;
42586;SDS011;28216;53.362;-6.288;2022-10-31T10:50:04;9.70;;;2.00;;
42586;SDS011;28216;53.362;-6.288;2022-10-31T10:56:08;12.25;;;2.85;;
42586;SDS011;28216;53.362;-6.288;2022-10-31T11:01:12;11.75;;;2.45;;
42586;SDS011;28216;53.362;-6.288;2022-10-31T11:03:43;9.75;;;2.47;;
42586;SDS011;28216;53.362;-6.288;2022-10-31T11:09:08;11.45;;;2.10;;
42586;SDS011;28216;53.362;-6.288;2022-10-31T11:11:35;10.27;;;2.60;;
42586;SDS011;28216;53.362;-6.288;2022-10-31T11:14:05;13.20;;;2.63;;
42586;SDS011;28216;53.362;-6.288;2022-10-31T11:16:39;14.40;;;2.22;;
42586;SDS011;28216;53.362;-6.288;2022-10-31T11:19:25;11.55;;;2.35;;
42586;SDS011;28216;53.362;-6.288;2022-10-31T11:21:52;10.32;;;2.53;;
42586;SDS011;28216;53.362;-6.288;2022-10-31T11:24:19;7.68;;;2.03;;
42586;SDS011;28216;53.362;-6.288;2022-10-31T11:26:47;9.50;;;2.60;;
42586;SDS011;28216;53.362;-6.288;2022-10-31T11:29:23;12.15;;;2.45;;
42586;SDS011;28216;53.362;-6.288;2022-10-31T11:31:54;16.08;;;2.60;;
42586;SDS011;28216;53.362;-6.288;2022-10-31T11:34:31;11.20;;;2.83;;
42586;SDS011;28216;53.362;-6.288;2022-10-31T11:37:20;9.70;;;2.28;;
42586;SDS011;28216;53.362;-6.288;2022-10-31T11:40:06;12.13;;;2.53;;
42586;SDS011;28216;53.362;-6.288;2022-10-31T11:42:41;10.48;;;3.22;;
42586;SDS011;28216;53.362;-6.288;2022-10-31T11:48:12;10.90;;;2.38;;
42586;SDS011;28216;53.362;-6.288;2022-10-31T11:51:03;4.18;;;1.58;;
42586;SDS011;28216;53.362;-6.288;2022-10-31T11:53:34;6.05;;;1.80;;
42586;SDS011;28216;53.362;-6.288;2022-10-31T11:56:10;8.75;;;1.80;;
42586;SDS011;28216;53.362;-6.288;2022-10-31T11:58:39;5.97;;;1.50;;
42586;SDS011;28216;53.362;-6.288;2022-10-31T12:01:04;4.10;;;1.48;;
42586;SDS011;28216;53.362;-6.288;2022-10-31T12:06:21;5.28;;;1.60;;
42586;SDS011;28216;53.362;-6.288;2022-10-31T12:14:21;5.35;;;2.00;;
42586;SDS011;28216;53.362;-6.288;2022-10-31T12:17:00;8.70;;;2.50;;
42586;SDS011;28216;53.362;-6.288;2022-10-31T12:19:36;8.82;;;2.20;;
42586;SDS011;28216;53.362;-6.288;2022-10-31T12:24:43;7.40;;;2.25;;
42586;SDS011;28216;53.362;-6.288;2022-10-31T12:30:02;10.93;;;2.63;;
42586;SDS011;28216;53.362;-6.288;2022-10-31T12:46:48;12.45;;;2.47;;
42586;SDS011;28216;53.362;-6.288;2022-10-31T12:58:10;20.70;;;3.53;;
42586;SDS011;28216;53.362;-6.288;2022-10-31T13:00:43;18.58;;;4.22;;
42586;SDS011;28216;53.362;-6.288;2022-10-31T13:04:16;15.35;;;3.75;;
42586;SDS011;28216;53.362;-6.288;2022-10-31T13:06:22;13.18;;;3.28;;
42586;SDS011;28216;53.362;-6.288;2022-10-31T13:09:03;17.40;;;5.10;;
42586;SDS011;28216;53.362;-6.288;2022-10-31T13:14:55;11.05;;;3.22;;
42586;SDS011;28216;53.362;-6.288;2022-10-31T13:17:30;10.77;;;3.15;;
42586;SDS011;28216;53.362;-6.288;2022-10-31T13:22:38;7.25;;;2.40;;
42586;SDS011;28216;53.362;-6.288;2022-10-31T13:30:23;15.82;;;3.80;;
42586;SDS011;28216;53.362;-6.288;2022-10-31T13:33:01;15.73;;;3.10;;
42586;SDS011;28216;53.362;-6.288;2022-10-31T13:38:23;14.40;;;4.00;;
42586;SDS011;28216;53.362;-6.288;2022-10-31T13:41:09;19.27;;;7.13;;
42586;SDS011;28216;53.362;-6.288;2022-10-31T13:43:59;14.98;;;4.63;;
42586;SDS011;28216;53.362;-6.288;2022-10-31T13:46:34;13.95;;;3.53;;
42586;SDS011;28216;53.362;-6.288;2022-10-31T13:49:01;23.27;;;6.03;;
42586;SDS011;28216;53.362;-6.288;2022-10-31T13:51:28;13.15;;;3.13;;
42586;SDS011;28216;53.362;-6.288;2022-10-31T13:56:21;12.98;;;3.05;;
42586;SDS011;28216;53.362;-6.288;2022-10-31T14:01:31;13.32;;;3.03;;
42586;SDS011;28216;53.362;-6.288;2022-10-31T14:09:22;11.65;;;3.97;;
42586;SDS011;28216;53.362;-6.288;2022-10-31T14:11:48;14.95;;;4.75;;
42586;SDS011;28216;53.362;-6.288;2022-10-31T14:14:15;12.77;;;4.00;;
42586;SDS011;28216;53.362;-6.288;2022-10-31T14:16:43;13.63;;;4.90;;
42586;SDS011;28216;53.362;-6.288;2022-10-31T14:19:14;11.15;;;4.18;;
42586;SDS011;28216;53.362;-6.288;2022-10-31T14:21:43;10.52;;;2.60;;
42586;SDS011;28216;53.362;-6.288;2022-10-31T14:26:53;10.85;;;3.30;;
42586;SDS011;28216;53.362;-6.288;2022-10-31T14:29:27;11.82;;;4.07;;
42586;SDS011;28216;53.362;-6.288;2022-10-31T14:31:58;18.55;;;6.63;;
42586;SDS011;28216;53.362;-6.288;2022-10-31T14:43:08;12.70;;;2.78;;
42586;SDS011;28216;53.362;-6.288;2022-10-31T14:46:06;13.65;;;3.63;;
42586;SDS011;28216;53.362;-6.288;2022-10-31T14:48:47;15.82;;;3.70;;
42586;SDS011;28216;53.362;-6.288;2022-10-31T14:51:40;12.27;;;2.90;;
42586;SDS011;28216;53.362;-6.288;2022-10-31T14:54:11;11.90;;;3.13;;
42586;SDS011;28216;53.362;-6.288;2022-10-31T14:56:52;13.07;;;4.00;;
42586;SDS011;28216;53.362;-6.288;2022-10-31T14:59:22;11.52;;;3.05;;
42586;SDS011;28216;53.362;-6.288;2022-10-31T15:01:54;13.73;;;3.80;;
42586;SDS011;28216;53.362;-6.288;2022-10-31T15:04:23;15.13;;;3.10;;
42586;SDS011;28216;53.362;-6.288;2022-10-31T15:06:52;10.90;;;2.55;;
42586;SDS011;28216;53.362;-6.288;2022-10-31T15:09:29;10.43;;;3.90;;
42586;SDS011;28216;53.362;-6.288;2022-10-31T15:12:00;10.90;;;2.53;;
42586;SDS011;28216;53.362;-6.288;2022-10-31T15:14:39;18.40;;;7.18;;
42586;SDS011;28216;53.362;-6.288;2022-10-31T15:17:05;8.10;;;2.65;;
42586;SDS011;28216;53.362;-6.288;2022-10-31T15:19:30;9.30;;;2.38;;
42586;SDS011;28216;53.362;-6.288;2022-10-31T15:21:59;16.55;;;4.22;;
42586;SDS011;28216;53.362;-6.288;2022-10-31T15:24:28;18.83;;;6.78;;
42586;SDS011;28216;53.362;-6.288;2022-10-31T15:26:58;13.15;;;4.25;;
42586;SDS011;28216;53.362;-6.288;2022-10-31T15:29:24;7.32;;;4.00;;
42586;SDS011;28216;53.362;-6.288;2022-10-31T15:37:03;13.70;;;4.80;;
42586;SDS011;28216;53.362;-6.288;2022-10-31T15:39:29;12.23;;;4.88;;
42586;SDS011;28216;53.362;-6.288;2022-10-31T15:41:56;12.93;;;4.97;;
42586;SDS011;28216;53.362;-6.288;2022-10-31T15:44:25;9.75;;;4.22;;
42586;SDS011;28216;53.362;-6.288;2022-10-31T15:46:57;13.02;;;4.45;;
42586;SDS011;28216;53.362;-6.288;2022-10-31T15:58:16;13.82;;;4.88;;
42586;SDS011;28216;53.362;-6.288;2022-10-31T16:03:29;12.68;;;4.68;;
42586;SDS011;28216;53.362;-6.288;2022-10-31T16:06:00;9.10;;;2.70;;
42586;SDS011;28216;53.362;-6.288;2022-10-31T16:10:57;10.57;;;3.90;;
42586;SDS011;28216;53.362;-6.288;2022-10-31T16:13:34;11.55;;;3.95;;
42586;SDS011;28216;53.362;-6.288;2022-10-31T16:16:03;9.05;;;4.10;;
42586;SDS011;28216;53.362;-6.288;2022-10-31T16:18:36;6.97;;;2.50;;
42586;SDS011;28216;53.362;-6.288;2022-10-31T16:21:03;6.30;;;2.53;;
42586;SDS011;28216;53.362;-6.288;2022-10-31T16:23:29;5.70;;;2.20;;
42586;SDS011;28216;53.362;-6.288;2022-10-31T16:25:55;8.55;;;2.50;;
42586;SDS011;28216;53.362;-6.288;2022-10-31T16:28:22;9.73;;;3.95;;
42586;SDS011;28216;53.362;-6.288;2022-10-31T16:30:52;10.50;;;4.35;;
42586;SDS011;28216;53.362;-6.288;2022-10-31T16:33:32;12.40;;;5.03;;
42586;SDS011;28216;53.362;-6.288;2022-10-31T16:38:57;10.70;;;3.45;;
42586;SDS011;28216;53.362;-6.288;2022-10-31T16:41:23;15.98;;;7.57;;
42586;SDS011;28216;53.362;-6.288;2022-10-31T16:43:50;12.25;;;5.28;;
42586;SDS011;28216;53.362;-6.288;2022-10-31T16:46:18;10.25;;;4.30;;
42586;SDS011;28216;53.362;-6.288;2022-10-31T16:48:48;10.07;;;3.97;;
42586;SDS011;28216;53.362;-6.288;2022-10-31T16:51:13;7.40;;;3.83;;
42586;SDS011;28216;53.362;-6.288;2022-10-31T16:53:39;12.57;;;7.07;;
42586;SDS011;28216;53.362;-6.288;2022-10-31T16:56:04;11.60;;;5.00;;
42586;SDS011;28216;53.362;-6.288;2022-10-31T16:58:38;8.05;;;3.22;;
42586;SDS011;28216;53.362;-6.288;2022-10-31T17:01:04;11.90;;;3.58;;
42586;SDS011;28216;53.362;-6.288;2022-10-31T17:03:31;10.13;;;3.78;;
42586;SDS011;28216;53.362;-6.288;2022-10-31T17:05:57;10.57;;;3.72;;
42586;SDS011;28216;53.362;-6.288;2022-10-31T17:08:23;9.73;;;3.58;;
42586;SDS011;28216;53.362;-6.288;2022-10-31T17:10:53;8.60;;;3.42;;
42586;SDS011;28216;53.362;-6.288;2022-10-31T17:13:20;12.68;;;4.25;;
42586;SDS011;28216;53.362;-6.288;2022-10-31T17:15:51;10.68;;;4.18;;
42586;SDS011;28216;53.362;-6.288;2022-10-31T17:18:21;12.63;;;5.28;;
42586;SDS011;28216;53.362;-6.288;2022-10-31T17:20:58;17.02;;;9.10;;
42586;SDS011;28216;53.362;-6.288;2022-10-31T17:25:55;16.63;;;8.00;;
42586;SDS011;28216;53.362;-6.288;2022-10-31T17:28:23;18.05;;;5.80;;
42586;SDS011;28216;53.362;-6.288;2022-10-31T17:30:53;14.80;;;6.53;;
42586;SDS011;28216;53.362;-6.288;2022-10-31T17:33:23;18.13;;;8.20;;
42586;SDS011;28216;53.362;-6.288;2022-10-31T17:35:48;16.48;;;6.50;;
42586;SDS011;28216;53.362;-6.288;2022-10-31T17:38:14;21.65;;;5.82;;